sensor_id;sensor_type;location;lat;lon;timestamp;temperature;humidity
61167;DHT22;47038;50.808;3.468;2022-07-26T00:02:07;19.50;98.00
61167;DHT22;47038;50.808;3.468;2022-07-26T00:04:32;19.60;98.10
61167;DHT22;47038;50.808;3.468;2022-07-26T00:06:58;19.60;98.10
61167;DHT22;47038;50.808;3.468;2022-07-26T00:09:23;19.80;97.80
61167;DHT22;47038;50.808;3.468;2022-07-26T00:11:49;19.90;97.60
61167;DHT22;47038;50.808;3.468;2022-07-26T00:14:14;19.80;97.70
61167;DHT22;47038;50.808;3.468;2022-07-26T00:16:40;19.70;98.00
61167;DHT22;47038;50.808;3.468;2022-07-26T00:19:06;19.60;98.30
61167;DHT22;47038;50.808;3.468;2022-07-26T00:21:32;19.60;98.30
61167;DHT22;47038;50.808;3.468;2022-07-26T00:23:58;19.80;98.40
61167;DHT22;47038;50.808;3.468;2022-07-26T00:26:24;19.80;98.40
61167;DHT22;47038;50.808;3.468;2022-07-26T00:28:49;19.70;98.20
61167;DHT22;47038;50.808;3.468;2022-07-26T00:31:15;19.80;98.30
61167;DHT22;47038;50.808;3.468;2022-07-26T00:33:40;19.80;98.10
61167;DHT22;47038;50.808;3.468;2022-07-26T00:36:06;19.80;98.40
61167;DHT22;47038;50.808;3.468;2022-07-26T00:38:32;19.90;98.20
61167;DHT22;47038;50.808;3.468;2022-07-26T00:40:57;19.80;98.40
61167;DHT22;47038;50.808;3.468;2022-07-26T00:43:23;19.70;98.50
61167;DHT22;47038;50.808;3.468;2022-07-26T00:45:48;19.70;98.60
61167;DHT22;47038;50.808;3.468;2022-07-26T00:48:15;19.70;98.70
61167;DHT22;47038;50.808;3.468;2022-07-26T00:50:40;19.60;99.00
61167;DHT22;47038;50.808;3.468;2022-07-26T00:53:06;19.50;99.00
61167;DHT22;47038;50.808;3.468;2022-07-26T00:55:32;19.40;99.20
61167;DHT22;47038;50.808;3.468;2022-07-26T00:57:57;19.30;99.40
61167;DHT22;47038;50.808;3.468;2022-07-26T01:00:25;19.40;99.40
61167;DHT22;47038;50.808;3.468;2022-07-26T01:02:52;19.40;99.40
61167;DHT22;47038;50.808;3.468;2022-07-26T01:05:17;19.40;99.40
61167;DHT22;47038;50.808;3.468;2022-07-26T01:07:43;19.40;99.40
61167;DHT22;47038;50.808;3.468;2022-07-26T01:10:09;19.30;99.50
61167;DHT22;47038;50.808;3.468;2022-07-26T01:12:37;19.30;99.70
61167;DHT22;47038;50.808;3.468;2022-07-26T01:15:03;19.30;99.80
61167;DHT22;47038;50.808;3.468;2022-07-26T01:17:28;19.20;99.70
61167;DHT22;47038;50.808;3.468;2022-07-26T01:19:54;19.20;99.70
61167;DHT22;47038;50.808;3.468;2022-07-26T01:22:19;19.20;99.80
61167;DHT22;47038;50.808;3.468;2022-07-26T01:24:45;19.10;99.90
61167;DHT22;47038;50.808;3.468;2022-07-26T01:27:10;19.10;99.90
61167;DHT22;47038;50.808;3.468;2022-07-26T01:29:36;19.00;99.90
61167;DHT22;47038;50.808;3.468;2022-07-26T01:32:02;19.00;99.90
61167;DHT22;47038;50.808;3.468;2022-07-26T01:34:29;19.00;99.90
61167;DHT22;47038;50.808;3.468;2022-07-26T01:36:54;19.00;99.90
61167;DHT22;47038;50.808;3.468;2022-07-26T01:39:21;19.10;99.90
61167;DHT22;47038;50.808;3.468;2022-07-26T01:41:46;19.10;99.90
61167;DHT22;47038;50.808;3.468;2022-07-26T01:44:12;19.10;99.90
61167;DHT22;47038;50.808;3.468;2022-07-26T01:46:37;19.00;99.90
61167;DHT22;47038;50.808;3.468;2022-07-26T01:49:03;19.00;99.90
61167;DHT22;47038;50.808;3.468;2022-07-26T01:51:29;19.00;99.90
61167;DHT22;47038;50.808;3.468;2022-07-26T01:53:54;19.10;99.90
61167;DHT22;47038;50.808;3.468;2022-07-26T01:56:20;19.10;99.90
61167;DHT22;47038;50.808;3.468;2022-07-26T01:58:45;19.10;99.90
61167;DHT22;47038;50.808;3.468;2022-07-26T02:01:11;19.00;99.90
61167;DHT22;47038;50.808;3.468;2022-07-26T02:03:36;19.00;99.90
61167;DHT22;47038;50.808;3.468;2022-07-26T02:06:03;19.00;99.90
61167;DHT22;47038;50.808;3.468;2022-07-26T02:08:29;19.00;99.90
61167;DHT22;47038;50.808;3.468;2022-07-26T02:10:54;18.90;99.90
61167;DHT22;47038;50.808;3.468;2022-07-26T02:13:27;18.80;99.90
61167;DHT22;47038;50.808;3.468;2022-07-26T02:15:53;18.80;99.90
61167;DHT22;47038;50.808;3.468;2022-07-26T02:18:18;18.80;99.90
61167;DHT22;47038;50.808;3.468;2022-07-26T02:20:44;18.90;99.90
61167;DHT22;47038;50.808;3.468;2022-07-26T02:23:09;19.10;99.90
61167;DHT22;47038;50.808;3.468;2022-07-26T02:25:35;19.00;99.90
61167;DHT22;47038;50.808;3.468;2022-07-26T02:28:00;19.00;99.90
61167;DHT22;47038;50.808;3.468;2022-07-26T02:30:26;19.00;99.90
61167;DHT22;47038;50.808;3.468;2022-07-26T02:32:52;19.00;99.90
61167;DHT22;47038;50.808;3.468;2022-07-26T02:35:17;19.10;99.90
61167;DHT22;47038;50.808;3.468;2022-07-26T02:37:43;19.20;99.90
61167;DHT22;47038;50.808;3.468;2022-07-26T02:40:09;19.00;99.90
61167;DHT22;47038;50.808;3.468;2022-07-26T02:42:34;18.90;99.90
61167;DHT22;47038;50.808;3.468;2022-07-26T02:45:00;18.80;99.90
61167;DHT22;47038;50.808;3.468;2022-07-26T02:47:26;18.50;99.90
61167;DHT22;47038;50.808;3.468;2022-07-26T02:49:52;18.60;99.90
61167;DHT22;47038;50.808;3.468;2022-07-26T02:52:17;18.70;99.90
61167;DHT22;47038;50.808;3.468;2022-07-26T02:54:43;18.70;99.90
61167;DHT22;47038;50.808;3.468;2022-07-26T02:57:08;18.50;99.90
61167;DHT22;47038;50.808;3.468;2022-07-26T02:59:34;18.40;99.90
61167;DHT22;47038;50.808;3.468;2022-07-26T03:02:00;18.50;99.90
61167;DHT22;47038;50.808;3.468;2022-07-26T03:04:25;18.50;99.90
61167;DHT22;47038;50.808;3.468;2022-07-26T03:06:51;18.50;99.90
61167;DHT22;47038;50.808;3.468;2022-07-26T03:09:16;18.40;99.90
61167;DHT22;47038;50.808;3.468;2022-07-26T03:11:42;18.30;99.90
61167;DHT22;47038;50.808;3.468;2022-07-26T03:14:07;18.30;99.90
61167;DHT22;47038;50.808;3.468;2022-07-26T03:16:33;18.30;99.90
61167;DHT22;47038;50.808;3.468;2022-07-26T03:18:59;18.20;99.90
61167;DHT22;47038;50.808;3.468;2022-07-26T03:21:24;18.20;99.90
61167;DHT22;47038;50.808;3.468;2022-07-26T03:23:50;18.30;99.90
61167;DHT22;47038;50.808;3.468;2022-07-26T03:26:15;18.30;99.90
61167;DHT22;47038;50.808;3.468;2022-07-26T03:28:41;18.30;99.90
61167;DHT22;47038;50.808;3.468;2022-07-26T03:31:09;18.30;99.90
61167;DHT22;47038;50.808;3.468;2022-07-26T03:33:34;18.30;99.90
61167;DHT22;47038;50.808;3.468;2022-07-26T03:36:00;18.30;99.90
61167;DHT22;47038;50.808;3.468;2022-07-26T03:38:25;18.40;99.90
61167;DHT22;47038;50.808;3.468;2022-07-26T03:40:51;18.50;99.90
61167;DHT22;47038;50.808;3.468;2022-07-26T03:43:16;18.50;99.90
61167;DHT22;47038;50.808;3.468;2022-07-26T03:45:43;18.40;99.90
61167;DHT22;47038;50.808;3.468;2022-07-26T03:48:09;18.20;99.90
61167;DHT22;47038;50.808;3.468;2022-07-26T03:50:35;18.00;99.90
61167;DHT22;47038;50.808;3.468;2022-07-26T03:53:00;18.00;99.90
61167;DHT22;47038;50.808;3.468;2022-07-26T03:55:26;18.00;99.90
61167;DHT22;47038;50.808;3.468;2022-07-26T03:58:10;17.90;99.90
61167;DHT22;47038;50.808;3.468;2022-07-26T04:00:36;17.80;99.90
61167;DHT22;47038;50.808;3.468;2022-07-26T04:03:01;17.70;99.90
61167;DHT22;47038;50.808;3.468;2022-07-26T04:05:27;17.80;99.90
61167;DHT22;47038;50.808;3.468;2022-07-26T04:07:52;17.90;99.90
61167;DHT22;47038;50.808;3.468;2022-07-26T04:10:18;17.80;99.90
61167;DHT22;47038;50.808;3.468;2022-07-26T04:12:43;17.70;99.90
61167;DHT22;47038;50.808;3.468;2022-07-26T04:15:09;17.80;99.90
61167;DHT22;47038;50.808;3.468;2022-07-26T04:17:35;17.80;99.90
61167;DHT22;47038;50.808;3.468;2022-07-26T04:20:01;17.80;99.90
61167;DHT22;47038;50.808;3.468;2022-07-26T04:22:26;17.90;99.90
61167;DHT22;47038;50.808;3.468;2022-07-26T04:24:52;17.80;99.90
61167;DHT22;47038;50.808;3.468;2022-07-26T04:27:17;17.70;99.90
61167;DHT22;47038;50.808;3.468;2022-07-26T04:29:43;17.60;99.90
61167;DHT22;47038;50.808;3.468;2022-07-26T04:32:08;17.60;99.90
61167;DHT22;47038;50.808;3.468;2022-07-26T04:34:34;17.60;99.90
61167;DHT22;47038;50.808;3.468;2022-07-26T04:36:59;17.70;99.90
61167;DHT22;47038;50.808;3.468;2022-07-26T04:39:25;17.80;99.90
61167;DHT22;47038;50.808;3.468;2022-07-26T04:41:50;17.80;99.90
61167;DHT22;47038;50.808;3.468;2022-07-26T04:44:16;17.90;99.90
61167;DHT22;47038;50.808;3.468;2022-07-26T04:46:41;17.80;99.90
61167;DHT22;47038;50.808;3.468;2022-07-26T04:49:07;17.90;99.90
61167;DHT22;47038;50.808;3.468;2022-07-26T04:51:32;17.90;99.90
61167;DHT22;47038;50.808;3.468;2022-07-26T04:53:58;18.00;99.90
61167;DHT22;47038;50.808;3.468;2022-07-26T04:56:24;18.00;99.90
61167;DHT22;47038;50.808;3.468;2022-07-26T04:58:49;18.00;99.90
61167;DHT22;47038;50.808;3.468;2022-07-26T05:01:15;18.10;99.90
61167;DHT22;47038;50.808;3.468;2022-07-26T05:03:40;18.20;99.90
61167;DHT22;47038;50.808;3.468;2022-07-26T05:06:06;18.30;99.90
61167;DHT22;47038;50.808;3.468;2022-07-26T05:08:31;18.30;99.90
61167;DHT22;47038;50.808;3.468;2022-07-26T05:10:57;18.20;99.90
61167;DHT22;47038;50.808;3.468;2022-07-26T05:13:22;18.30;99.90
61167;DHT22;47038;50.808;3.468;2022-07-26T05:15:48;18.20;99.90
61167;DHT22;47038;50.808;3.468;2022-07-26T05:18:13;18.20;99.90
61167;DHT22;47038;50.808;3.468;2022-07-26T05:20:39;18.30;99.90
61167;DHT22;47038;50.808;3.468;2022-07-26T05:23:04;18.40;99.90
61167;DHT22;47038;50.808;3.468;2022-07-26T05:25:30;18.60;99.90
61167;DHT22;47038;50.808;3.468;2022-07-26T05:27:56;18.50;99.90
61167;DHT22;47038;50.808;3.468;2022-07-26T05:30:21;18.40;99.90
61167;DHT22;47038;50.808;3.468;2022-07-26T05:32:47;18.50;99.90
61167;DHT22;47038;50.808;3.468;2022-07-26T05:35:12;18.70;99.90
61167;DHT22;47038;50.808;3.468;2022-07-26T05:37:38;18.70;99.90
61167;DHT22;47038;50.808;3.468;2022-07-26T05:40:04;18.70;99.90
61167;DHT22;47038;50.808;3.468;2022-07-26T05:42:29;18.70;99.90
61167;DHT22;47038;50.808;3.468;2022-07-26T05:44:55;18.80;99.90
61167;DHT22;47038;50.808;3.468;2022-07-26T05:47:20;18.80;99.90
61167;DHT22;47038;50.808;3.468;2022-07-26T05:49:46;18.80;99.90
61167;DHT22;47038;50.808;3.468;2022-07-26T05:52:12;18.90;99.90
61167;DHT22;47038;50.808;3.468;2022-07-26T05:54:37;19.00;99.50
61167;DHT22;47038;50.808;3.468;2022-07-26T05:57:03;19.10;99.30
61167;DHT22;47038;50.808;3.468;2022-07-26T05:59:28;19.20;99.40
61167;DHT22;47038;50.808;3.468;2022-07-26T06:01:54;19.20;99.00
61167;DHT22;47038;50.808;3.468;2022-07-26T06:04:23;19.40;98.90
61167;DHT22;47038;50.808;3.468;2022-07-26T06:06:48;19.40;98.70
61167;DHT22;47038;50.808;3.468;2022-07-26T06:09:14;19.50;98.30
61167;DHT22;47038;50.808;3.468;2022-07-26T06:11:40;19.60;98.10
61167;DHT22;47038;50.808;3.468;2022-07-26T06:14:05;19.70;97.70
61167;DHT22;47038;50.808;3.468;2022-07-26T06:16:31;19.80;97.50
61167;DHT22;47038;50.808;3.468;2022-07-26T06:18:56;19.90;97.30
61167;DHT22;47038;50.808;3.468;2022-07-26T06:21:22;19.90;96.90
61167;DHT22;47038;50.808;3.468;2022-07-26T06:23:47;20.00;96.70
61167;DHT22;47038;50.808;3.468;2022-07-26T06:26:13;20.00;96.80
61167;DHT22;47038;50.808;3.468;2022-07-26T06:28:39;19.90;96.70
61167;DHT22;47038;50.808;3.468;2022-07-26T06:31:05;20.00;96.30
61167;DHT22;47038;50.808;3.468;2022-07-26T06:33:31;20.00;96.70
61167;DHT22;47038;50.808;3.468;2022-07-26T06:35:56;20.30;96.00
61167;DHT22;47038;50.808;3.468;2022-07-26T06:38:22;20.30;95.70
61167;DHT22;47038;50.808;3.468;2022-07-26T06:40:48;20.50;95.50
61167;DHT22;47038;50.808;3.468;2022-07-26T06:43:13;20.60;95.10
61167;DHT22;47038;50.808;3.468;2022-07-26T06:45:39;20.40;95.20
61167;DHT22;47038;50.808;3.468;2022-07-26T06:48:04;20.40;95.30
61167;DHT22;47038;50.808;3.468;2022-07-26T06:50:30;20.50;94.90
61167;DHT22;47038;50.808;3.468;2022-07-26T06:52:55;20.50;94.70
61167;DHT22;47038;50.808;3.468;2022-07-26T06:55:21;20.50;94.70
61167;DHT22;47038;50.808;3.468;2022-07-26T06:57:46;20.30;94.40
61167;DHT22;47038;50.808;3.468;2022-07-26T07:00:12;20.40;94.70
61167;DHT22;47038;50.808;3.468;2022-07-26T07:02:38;20.40;94.60
61167;DHT22;47038;50.808;3.468;2022-07-26T07:05:03;20.40;94.50
61167;DHT22;47038;50.808;3.468;2022-07-26T07:07:29;20.40;94.50
61167;DHT22;47038;50.808;3.468;2022-07-26T07:09:55;20.40;94.60
61167;DHT22;47038;50.808;3.468;2022-07-26T07:12:20;20.50;94.80
61167;DHT22;47038;50.808;3.468;2022-07-26T07:14:46;20.60;94.50
61167;DHT22;47038;50.808;3.468;2022-07-26T07:17:11;20.70;94.20
61167;DHT22;47038;50.808;3.468;2022-07-26T07:19:37;20.60;93.90
61167;DHT22;47038;50.808;3.468;2022-07-26T07:22:03;20.50;94.50
61167;DHT22;47038;50.808;3.468;2022-07-26T07:24:29;20.60;94.10
61167;DHT22;47038;50.808;3.468;2022-07-26T07:26:54;20.60;94.20
61167;DHT22;47038;50.808;3.468;2022-07-26T07:29:20;20.70;93.60
61167;DHT22;47038;50.808;3.468;2022-07-26T07:31:46;20.70;93.60
61167;DHT22;47038;50.808;3.468;2022-07-26T07:34:12;20.70;93.80
61167;DHT22;47038;50.808;3.468;2022-07-26T07:36:38;20.70;93.70
61167;DHT22;47038;50.808;3.468;2022-07-26T07:39:03;20.70;93.40
61167;DHT22;47038;50.808;3.468;2022-07-26T07:41:29;20.70;93.40
61167;DHT22;47038;50.808;3.468;2022-07-26T07:43:55;20.80;93.30
61167;DHT22;47038;50.808;3.468;2022-07-26T07:46:20;21.00;93.40
61167;DHT22;47038;50.808;3.468;2022-07-26T07:48:46;21.10;92.80
61167;DHT22;47038;50.808;3.468;2022-07-26T07:51:11;21.10;92.80
61167;DHT22;47038;50.808;3.468;2022-07-26T07:53:37;21.20;92.80
61167;DHT22;47038;50.808;3.468;2022-07-26T07:56:03;21.50;92.30
61167;DHT22;47038;50.808;3.468;2022-07-26T07:58:28;21.60;91.80
61167;DHT22;47038;50.808;3.468;2022-07-26T08:00:54;21.80;91.40
61167;DHT22;47038;50.808;3.468;2022-07-26T08:03:19;21.80;91.40
61167;DHT22;47038;50.808;3.468;2022-07-26T08:05:45;21.80;91.30
61167;DHT22;47038;50.808;3.468;2022-07-26T08:08:11;21.80;91.50
61167;DHT22;47038;50.808;3.468;2022-07-26T08:10:36;21.80;91.10
61167;DHT22;47038;50.808;3.468;2022-07-26T08:13:02;21.80;91.10
61167;DHT22;47038;50.808;3.468;2022-07-26T08:15:27;21.80;91.20
61167;DHT22;47038;50.808;3.468;2022-07-26T08:17:53;21.90;90.90
61167;DHT22;47038;50.808;3.468;2022-07-26T08:20:19;22.00;91.10
61167;DHT22;47038;50.808;3.468;2022-07-26T08:22:45;22.10;90.90
61167;DHT22;47038;50.808;3.468;2022-07-26T08:25:10;22.30;90.70
61167;DHT22;47038;50.808;3.468;2022-07-26T08:27:36;22.50;90.30
61167;DHT22;47038;50.808;3.468;2022-07-26T08:30:02;22.60;90.80
61167;DHT22;47038;50.808;3.468;2022-07-26T08:32:28;22.70;89.60
61167;DHT22;47038;50.808;3.468;2022-07-26T08:34:53;22.80;87.50
61167;DHT22;47038;50.808;3.468;2022-07-26T08:37:19;22.70;87.50
61167;DHT22;47038;50.808;3.468;2022-07-26T08:39:46;22.70;87.60
61167;DHT22;47038;50.808;3.468;2022-07-26T08:42:12;22.80;87.80
61167;DHT22;47038;50.808;3.468;2022-07-26T08:44:40;22.80;88.80
61167;DHT22;47038;50.808;3.468;2022-07-26T08:47:06;22.80;86.50
61167;DHT22;47038;50.808;3.468;2022-07-26T08:49:31;22.80;87.10
61167;DHT22;47038;50.808;3.468;2022-07-26T08:51:57;22.80;86.70
61167;DHT22;47038;50.808;3.468;2022-07-26T08:54:24;22.90;86.50
61167;DHT22;47038;50.808;3.468;2022-07-26T08:56:51;23.00;84.80
61167;DHT22;47038;50.808;3.468;2022-07-26T08:59:18;23.00;83.50
61167;DHT22;47038;50.808;3.468;2022-07-26T09:02:00;23.00;83.90
61167;DHT22;47038;50.808;3.468;2022-07-26T09:04:27;23.00;85.20
61167;DHT22;47038;50.808;3.468;2022-07-26T09:06:54;23.20;82.90
61167;DHT22;47038;50.808;3.468;2022-07-26T09:09:21;23.30;82.60
61167;DHT22;47038;50.808;3.468;2022-07-26T09:11:46;23.40;82.00
61167;DHT22;47038;50.808;3.468;2022-07-26T09:14:12;23.60;82.10
61167;DHT22;47038;50.808;3.468;2022-07-26T09:16:37;23.60;80.50
61167;DHT22;47038;50.808;3.468;2022-07-26T09:19:14;23.60;81.40
61167;DHT22;47038;50.808;3.468;2022-07-26T09:21:42;23.70;80.40
61167;DHT22;47038;50.808;3.468;2022-07-26T09:24:07;23.60;81.20
61167;DHT22;47038;50.808;3.468;2022-07-26T09:26:34;23.60;80.70
61167;DHT22;47038;50.808;3.468;2022-07-26T09:31:28;23.40;81.20
61167;DHT22;47038;50.808;3.468;2022-07-26T09:33:53;22.70;82.10
61167;DHT22;47038;50.808;3.468;2022-07-26T09:36:19;22.60;84.00
61167;DHT22;47038;50.808;3.468;2022-07-26T09:38:46;22.90;80.80
61167;DHT22;47038;50.808;3.468;2022-07-26T09:43:44;23.60;78.80
61167;DHT22;47038;50.808;3.468;2022-07-26T09:46:10;23.90;78.50
61167;DHT22;47038;50.808;3.468;2022-07-26T09:48:36;23.80;78.30
61167;DHT22;47038;50.808;3.468;2022-07-26T09:51:04;23.70;78.40
61167;DHT22;47038;50.808;3.468;2022-07-26T09:53:37;23.60;77.80
61167;DHT22;47038;50.808;3.468;2022-07-26T09:56:03;23.70;77.50
61167;DHT22;47038;50.808;3.468;2022-07-26T09:58:28;23.80;78.30
61167;DHT22;47038;50.808;3.468;2022-07-26T10:00:54;24.10;77.50
61167;DHT22;47038;50.808;3.468;2022-07-26T10:03:20;24.50;76.90
61167;DHT22;47038;50.808;3.468;2022-07-26T10:05:45;25.00;74.70
61167;DHT22;47038;50.808;3.468;2022-07-26T10:08:11;25.40;72.40
61167;DHT22;47038;50.808;3.468;2022-07-26T10:10:51;25.40;71.90
61167;DHT22;47038;50.808;3.468;2022-07-26T10:13:20;25.50;72.80
61167;DHT22;47038;50.808;3.468;2022-07-26T10:15:46;25.60;73.10
61167;DHT22;47038;50.808;3.468;2022-07-26T10:20:56;25.70;71.90
61167;DHT22;47038;50.808;3.468;2022-07-26T10:23:32;25.80;71.30
61167;DHT22;47038;50.808;3.468;2022-07-26T10:25:58;25.60;73.00
61167;DHT22;47038;50.808;3.468;2022-07-26T10:28:24;25.20;74.50
61167;DHT22;47038;50.808;3.468;2022-07-26T10:30:51;24.70;75.40
61167;DHT22;47038;50.808;3.468;2022-07-26T10:33:17;24.30;77.30
61167;DHT22;47038;50.808;3.468;2022-07-26T10:35:43;23.90;77.60
61167;DHT22;47038;50.808;3.468;2022-07-26T10:38:10;23.70;77.70
61167;DHT22;47038;50.808;3.468;2022-07-26T10:40:36;23.10;79.60
61167;DHT22;47038;50.808;3.468;2022-07-26T10:43:05;23.00;79.70
61167;DHT22;47038;50.808;3.468;2022-07-26T10:45:32;22.90;79.70
61167;DHT22;47038;50.808;3.468;2022-07-26T10:48:11;23.00;78.70
61167;DHT22;47038;50.808;3.468;2022-07-26T10:50:37;22.90;78.60
61167;DHT22;47038;50.808;3.468;2022-07-26T10:53:03;23.00;79.00
61167;DHT22;47038;50.808;3.468;2022-07-26T10:55:28;23.10;79.10
61167;DHT22;47038;50.808;3.468;2022-07-26T10:57:54;23.30;79.10
61167;DHT22;47038;50.808;3.468;2022-07-26T11:00:20;23.40;78.30
61167;DHT22;47038;50.808;3.468;2022-07-26T11:02:47;23.50;76.80
61167;DHT22;47038;50.808;3.468;2022-07-26T11:05:14;23.60;77.90
61167;DHT22;47038;50.808;3.468;2022-07-26T11:10:12;23.90;77.40
61167;DHT22;47038;50.808;3.468;2022-07-26T11:12:37;24.20;81.20
61167;DHT22;47038;50.808;3.468;2022-07-26T11:15:13;24.50;81.00
61167;DHT22;47038;50.808;3.468;2022-07-26T11:17:39;24.90;80.50
61167;DHT22;47038;50.808;3.468;2022-07-26T11:20:05;25.20;78.40
61167;DHT22;47038;50.808;3.468;2022-07-26T11:22:31;25.50;77.50
61167;DHT22;47038;50.808;3.468;2022-07-26T11:24:57;25.60;77.00
61167;DHT22;47038;50.808;3.468;2022-07-26T11:27:22;25.60;73.10
61167;DHT22;47038;50.808;3.468;2022-07-26T11:29:48;25.20;75.30
61167;DHT22;47038;50.808;3.468;2022-07-26T11:32:18;25.20;77.00
61167;DHT22;47038;50.808;3.468;2022-07-26T11:34:43;25.00;77.70
61167;DHT22;47038;50.808;3.468;2022-07-26T11:37:09;24.70;77.10
61167;DHT22;47038;50.808;3.468;2022-07-26T11:39:35;24.40;78.00
61167;DHT22;47038;50.808;3.468;2022-07-26T11:42:10;24.10;79.60
61167;DHT22;47038;50.808;3.468;2022-07-26T11:44:37;24.00;80.60
61167;DHT22;47038;50.808;3.468;2022-07-26T11:47:13;24.10;78.30
61167;DHT22;47038;50.808;3.468;2022-07-26T11:49:39;24.00;80.50
61167;DHT22;47038;50.808;3.468;2022-07-26T11:52:05;23.30;85.20
61167;DHT22;47038;50.808;3.468;2022-07-26T11:54:31;22.90;86.90
61167;DHT22;47038;50.808;3.468;2022-07-26T11:56:58;22.60;88.00
61167;DHT22;47038;50.808;3.468;2022-07-26T11:59:25;22.30;88.90
61167;DHT22;47038;50.808;3.468;2022-07-26T12:01:51;22.20;89.20
61167;DHT22;47038;50.808;3.468;2022-07-26T12:04:18;22.10;90.10
61167;DHT22;47038;50.808;3.468;2022-07-26T12:06:44;22.20;90.20
61167;DHT22;47038;50.808;3.468;2022-07-26T12:09:09;21.80;90.80
61167;DHT22;47038;50.808;3.468;2022-07-26T12:11:38;22.10;90.10
61167;DHT22;47038;50.808;3.468;2022-07-26T12:14:06;22.20;89.20
61167;DHT22;47038;50.808;3.468;2022-07-26T12:19:00;22.10;90.20
61167;DHT22;47038;50.808;3.468;2022-07-26T12:24:10;22.90;87.70
61167;DHT22;47038;50.808;3.468;2022-07-26T12:26:36;23.10;86.60
61167;DHT22;47038;50.808;3.468;2022-07-26T12:29:02;23.00;86.60
61167;DHT22;47038;50.808;3.468;2022-07-26T12:31:58;23.00;87.20
61167;DHT22;47038;50.808;3.468;2022-07-26T12:34:24;23.20;87.90
61167;DHT22;47038;50.808;3.468;2022-07-26T12:36:50;22.80;89.30
61167;DHT22;47038;50.808;3.468;2022-07-26T12:39:19;23.00;88.40
61167;DHT22;47038;50.808;3.468;2022-07-26T12:41:48;23.00;88.10
61167;DHT22;47038;50.808;3.468;2022-07-26T12:44:15;23.10;86.70
61167;DHT22;47038;50.808;3.468;2022-07-26T12:46:41;23.10;87.70
61167;DHT22;47038;50.808;3.468;2022-07-26T12:49:09;23.10;87.90
61167;DHT22;47038;50.808;3.468;2022-07-26T12:51:34;22.90;87.40
61167;DHT22;47038;50.808;3.468;2022-07-26T12:54:01;23.10;87.40
61167;DHT22;47038;50.808;3.468;2022-07-26T12:56:27;23.00;88.20
61167;DHT22;47038;50.808;3.468;2022-07-26T12:58:53;22.60;88.80
61167;DHT22;47038;50.808;3.468;2022-07-26T13:01:25;22.30;89.70
61167;DHT22;47038;50.808;3.468;2022-07-26T13:03:50;21.80;90.50
61167;DHT22;47038;50.808;3.468;2022-07-26T13:06:16;21.20;91.50
61167;DHT22;47038;50.808;3.468;2022-07-26T13:08:41;20.80;92.20
61167;DHT22;47038;50.808;3.468;2022-07-26T13:11:07;20.80;92.40
61167;DHT22;47038;50.808;3.468;2022-07-26T13:13:33;20.50;93.30
61167;DHT22;47038;50.808;3.468;2022-07-26T13:15:58;20.60;93.30
61167;DHT22;47038;50.808;3.468;2022-07-26T13:18:24;20.80;93.20
61167;DHT22;47038;50.808;3.468;2022-07-26T13:20:49;20.80;93.20
61167;DHT22;47038;50.808;3.468;2022-07-26T13:23:15;20.70;93.50
61167;DHT22;47038;50.808;3.468;2022-07-26T13:25:40;20.40;93.80
61167;DHT22;47038;50.808;3.468;2022-07-26T13:28:06;20.40;93.50
61167;DHT22;47038;50.808;3.468;2022-07-26T13:30:32;20.40;93.10
61167;DHT22;47038;50.808;3.468;2022-07-26T13:32:57;20.30;93.50
61167;DHT22;47038;50.808;3.468;2022-07-26T13:35:23;20.20;93.50
61167;DHT22;47038;50.808;3.468;2022-07-26T13:37:48;20.40;93.30
61167;DHT22;47038;50.808;3.468;2022-07-26T13:40:14;20.30;93.50
61167;DHT22;47038;50.808;3.468;2022-07-26T13:42:39;20.40;93.30
61167;DHT22;47038;50.808;3.468;2022-07-26T13:45:05;20.30;93.60
61167;DHT22;47038;50.808;3.468;2022-07-26T13:47:31;20.40;93.40
61167;DHT22;47038;50.808;3.468;2022-07-26T13:49:56;20.50;93.50
61167;DHT22;47038;50.808;3.468;2022-07-26T13:52:22;20.80;93.00
61167;DHT22;47038;50.808;3.468;2022-07-26T13:54:47;21.00;92.80
61167;DHT22;47038;50.808;3.468;2022-07-26T13:57:13;20.80;92.80
61167;DHT22;47038;50.808;3.468;2022-07-26T13:59:38;20.60;92.40
61167;DHT22;47038;50.808;3.468;2022-07-26T14:02:04;20.70;91.00
61167;DHT22;47038;50.808;3.468;2022-07-26T14:04:31;20.80;90.70
61167;DHT22;47038;50.808;3.468;2022-07-26T14:06:56;21.40;90.10
61167;DHT22;47038;50.808;3.468;2022-07-26T14:09:22;21.60;87.40
61167;DHT22;47038;50.808;3.468;2022-07-26T14:11:48;21.30;88.40
61167;DHT22;47038;50.808;3.468;2022-07-26T14:14:14;21.50;87.20
61167;DHT22;47038;50.808;3.468;2022-07-26T14:16:40;21.60;86.60
61167;DHT22;47038;50.808;3.468;2022-07-26T14:19:05;21.90;84.60
61167;DHT22;47038;50.808;3.468;2022-07-26T14:21:32;21.70;85.50
61167;DHT22;47038;50.808;3.468;2022-07-26T14:23:58;21.80;85.80
61167;DHT22;47038;50.808;3.468;2022-07-26T14:26:23;21.80;86.30
61167;DHT22;47038;50.808;3.468;2022-07-26T14:28:50;21.80;86.10
61167;DHT22;47038;50.808;3.468;2022-07-26T14:31:15;22.00;86.10
61167;DHT22;47038;50.808;3.468;2022-07-26T14:33:41;21.90;87.70
61167;DHT22;47038;50.808;3.468;2022-07-26T14:36:07;21.70;87.90
61167;DHT22;47038;50.808;3.468;2022-07-26T14:38:34;21.90;88.00
61167;DHT22;47038;50.808;3.468;2022-07-26T14:41:00;21.80;87.50
61167;DHT22;47038;50.808;3.468;2022-07-26T14:43:26;21.60;88.70
61167;DHT22;47038;50.808;3.468;2022-07-26T14:45:51;21.30;88.80
61167;DHT22;47038;50.808;3.468;2022-07-26T14:48:17;21.20;90.10
61167;DHT22;47038;50.808;3.468;2022-07-26T14:50:43;21.60;88.60
61167;DHT22;47038;50.808;3.468;2022-07-26T14:53:09;21.60;89.60
61167;DHT22;47038;50.808;3.468;2022-07-26T14:55:35;21.80;89.70
61167;DHT22;47038;50.808;3.468;2022-07-26T14:58:01;21.60;90.10
61167;DHT22;47038;50.808;3.468;2022-07-26T15:00:26;21.60;90.40
61167;DHT22;47038;50.808;3.468;2022-07-26T15:02:52;21.60;90.80
61167;DHT22;47038;50.808;3.468;2022-07-26T15:05:17;21.80;90.50
61167;DHT22;47038;50.808;3.468;2022-07-26T15:07:43;22.10;90.00
61167;DHT22;47038;50.808;3.468;2022-07-26T15:10:10;22.10;90.20
61167;DHT22;47038;50.808;3.468;2022-07-26T15:12:36;22.30;90.20
61167;DHT22;47038;50.808;3.468;2022-07-26T15:15:02;22.40;88.60
61167;DHT22;47038;50.808;3.468;2022-07-26T15:17:27;22.40;89.30
61167;DHT22;47038;50.808;3.468;2022-07-26T15:19:53;22.60;88.60
61167;DHT22;47038;50.808;3.468;2022-07-26T15:22:18;22.70;86.90
61167;DHT22;47038;50.808;3.468;2022-07-26T15:24:44;22.40;87.40
61167;DHT22;47038;50.808;3.468;2022-07-26T15:27:09;22.30;87.20
61167;DHT22;47038;50.808;3.468;2022-07-26T15:29:35;22.10;87.50
61167;DHT22;47038;50.808;3.468;2022-07-26T15:32:01;22.20;86.90
61167;DHT22;47038;50.808;3.468;2022-07-26T15:34:26;21.70;88.80
61167;DHT22;47038;50.808;3.468;2022-07-26T15:36:52;21.70;88.40
61167;DHT22;47038;50.808;3.468;2022-07-26T15:39:17;21.70;88.50